sensor_id;sensor_type;location;lat;lon;timestamp;P1;P2;P0
43280;PMS5003;62175;49.416;8.690;2023-06-19T00:02:23;21;18;
43280;PMS5003;62175;49.416;8.690;2023-06-19T00:04:50;17;16;
43280;PMS5003;62175;49.416;8.690;2023-06-19T00:07:17;17;17;
43280;PMS5003;62175;49.416;8.690;2023-06-19T00:09:44;18;18;
43280;PMS5003;62175;49.416;8.690;2023-06-19T00:12:10;21;20;
43280;PMS5003;62175;49.416;8.690;2023-06-19T00:14:38;19;18;
43280;PMS5003;62175;49.416;8.690;2023-06-19T00:17:04;15;15;
43280;PMS5003;62175;49.416;8.690;2023-06-19T00:19:32;16;16;
43280;PMS5003;62175;49.416;8.690;2023-06-19T00:21:59;14;14;
43280;PMS5003;62175;49.416;8.690;2023-06-19T00:24:27;17;17;
43280;PMS5003;62175;49.416;8.690;2023-06-19T00:26:53;17;17;
43280;PMS5003;62175;49.416;8.690;2023-06-19T00:29:21;18;17;
43280;PMS5003;62175;49.416;8.690;2023-06-19T00:31:48;18;17;
43280;PMS5003;62175;49.416;8.690;2023-06-19T00:34:15;16;14;
43280;PMS5003;62175;49.416;8.690;2023-06-19T00:36:42;18;18;
43280;PMS5003;62175;49.416;8.690;2023-06-19T00:39:09;15;15;
43280;PMS5003;62175;49.416;8.690;2023-06-19T00:41:36;19;19;
43280;PMS5003;62175;49.416;8.690;2023-06-19T00:44:03;19;18;
43280;PMS5003;62175;49.416;8.690;2023-06-19T00:46:30;18;15;
43280;PMS5003;62175;49.416;8.690;2023-06-19T00:48:57;15;15;
43280;PMS5003;62175;49.416;8.690;2023-06-19T00:51:25;17;16;
43280;PMS5003;62175;49.416;8.690;2023-06-19T00:53:52;19;17;
43280;PMS5003;62175;49.416;8.690;2023-06-19T00:56:19;18;17;
43280;PMS5003;62175;49.416;8.690;2023-06-19T00:58:46;22;19;
43280;PMS5003;62175;49.416;8.690;2023-06-19T01:01:13;16;16;
43280;PMS5003;62175;49.416;8.690;2023-06-19T01:03:40;17;17;
43280;PMS5003;62175;49.416;8.690;2023-06-19T01:06:08;17;17;
43280;PMS5003;62175;49.416;8.690;2023-06-19T01:08:43;18;18;
43280;PMS5003;62175;49.416;8.690;2023-06-19T01:11:17;20;20;
43280;PMS5003;62175;49.416;8.690;2023-06-19T01:13:47;18;18;
43280;PMS5003;62175;49.416;8.690;2023-06-19T01:16:19;19;18;
43280;PMS5003;62175;49.416;8.690;2023-06-19T01:18:47;17;17;
43280;PMS5003;62175;49.416;8.690;2023-06-19T01:21:16;23;21;
43280;PMS5003;62175;49.416;8.690;2023-06-19T01:23:44;23;22;
43280;PMS5003;62175;49.416;8.690;2023-06-19T01:26:12;20;20;
43280;PMS5003;62175;49.416;8.690;2023-06-19T01:28:40;23;22;
43280;PMS5003;62175;49.416;8.690;2023-06-19T01:31:12;19;18;
43280;PMS5003;62175;49.416;8.690;2023-06-19T01:33:46;26;24;
43280;PMS5003;62175;49.416;8.690;2023-06-19T01:36:16;23;21;
43280;PMS5003;62175;49.416;8.690;2023-06-19T01:38:45;23;21;
43280;PMS5003;62175;49.416;8.690;2023-06-19T01:41:14;23;17;
43280;PMS5003;62175;49.416;8.690;2023-06-19T01:43:42;26;24;
43280;PMS5003;62175;49.416;8.690;2023-06-19T01:46:11;21;21;
43280;PMS5003;62175;49.416;8.690;2023-06-19T01:48:38;23;23;
43280;PMS5003;62175;49.416;8.690;2023-06-19T01:51:05;24;24;
43280;PMS5003;62175;49.416;8.690;2023-06-19T01:53:32;26;26;
43280;PMS5003;62175;49.416;8.690;2023-06-19T01:56:00;19;18;
43280;PMS5003;62175;49.416;8.690;2023-06-19T01:58:28;21;20;
43280;PMS5003;62175;49.416;8.690;2023-06-19T02:00:55;24;24;
43280;PMS5003;62175;49.416;8.690;2023-06-19T02:03:22;24;23;
43280;PMS5003;62175;49.416;8.690;2023-06-19T02:05:49;25;25;
43280;PMS5003;62175;49.416;8.690;2023-06-19T02:08:16;21;20;
43280;PMS5003;62175;49.416;8.690;2023-06-19T02:10:43;23;22;
43280;PMS5003;62175;49.416;8.690;2023-06-19T02:13:10;20;19;
43280;PMS5003;62175;49.416;8.690;2023-06-19T02:15:38;20;19;
43280;PMS5003;62175;49.416;8.690;2023-06-19T02:18:05;18;18;
43280;PMS5003;62175;49.416;8.690;2023-06-19T02:20:32;17;17;
43280;PMS5003;62175;49.416;8.690;2023-06-19T02:22:59;18;16;
43280;PMS5003;62175;49.416;8.690;2023-06-19T02:25:26;19;18;
43280;PMS5003;62175;49.416;8.690;2023-06-19T02:27:53;16;15;
43280;PMS5003;62175;49.416;8.690;2023-06-19T02:30:20;16;15;
43280;PMS5003;62175;49.416;8.690;2023-06-19T02:32:47;18;16;
43280;PMS5003;62175;49.416;8.690;2023-06-19T02:35:15;15;15;
43280;PMS5003;62175;49.416;8.690;2023-06-19T02:37:42;16;15;
43280;PMS5003;62175;49.416;8.690;2023-06-19T02:40:10;14;14;
43280;PMS5003;62175;49.416;8.690;2023-06-19T02:42:37;14;14;
43280;PMS5003;62175;49.416;8.690;2023-06-19T02:45:05;14;14;
43280;PMS5003;62175;49.416;8.690;2023-06-19T02:47:33;13;13;
43280;PMS5003;62175;49.416;8.690;2023-06-19T02:50:01;17;17;
43280;PMS5003;62175;49.416;8.690;2023-06-19T02:52:29;13;13;
43280;PMS5003;62175;49.416;8.690;2023-06-19T02:54:57;16;16;
43280;PMS5003;62175;49.416;8.690;2023-06-19T02:57:24;18;15;
43280;PMS5003;62175;49.416;8.690;2023-06-19T02:59:51;13;13;
43280;PMS5003;62175;49.416;8.690;2023-06-19T03:02:18;17;17;
43280;PMS5003;62175;49.416;8.690;2023-06-19T03:04:45;14;14;
43280;PMS5003;62175;49.416;8.690;2023-06-19T03:07:12;15;15;
43280;PMS5003;62175;49.416;8.690;2023-06-19T03:09:39;15;15;
43280;PMS5003;62175;49.416;8.690;2023-06-19T03:12:06;19;18;
43280;PMS5003;62175;49.416;8.690;2023-06-19T03:14:34;15;13;
43280;PMS5003;62175;49.416;8.690;2023-06-19T03:17:01;12;11;
43280;PMS5003;62175;49.416;8.690;2023-06-19T03:19:29;9;9;
43280;PMS5003;62175;49.416;8.690;2023-06-19T03:21:56;9;8;
43280;PMS5003;62175;49.416;8.690;2023-06-19T03:24:22;8;8;
43280;PMS5003;62175;49.416;8.690;2023-06-19T03:26:49;8;7;
43280;PMS5003;62175;49.416;8.690;2023-06-19T03:29:16;6;6;
43280;PMS5003;62175;49.416;8.690;2023-06-19T03:31:43;6;6;
43280;PMS5003;62175;49.416;8.690;2023-06-19T03:34:10;8;7;
43280;PMS5003;62175;49.416;8.690;2023-06-19T03:36:38;7;7;
43280;PMS5003;62175;49.416;8.690;2023-06-19T03:39:05;8;7;
43280;PMS5003;62175;49.416;8.690;2023-06-19T03:41:32;7;7;
43280;PMS5003;62175;49.416;8.690;2023-06-19T03:43:59;7;7;
43280;PMS5003;62175;49.416;8.690;2023-06-19T03:46:26;7;7;
43280;PMS5003;62175;49.416;8.690;2023-06-19T03:48:53;6;6;
43280;PMS5003;62175;49.416;8.690;2023-06-19T03:51:19;6;5;
43280;PMS5003;62175;49.416;8.690;2023-06-19T03:53:46;7;7;
43280;PMS5003;62175;49.416;8.690;2023-06-19T03:56:13;8;7;
43280;PMS5003;62175;49.416;8.690;2023-06-19T03:58:40;8;7;
43280;PMS5003;62175;49.416;8.690;2023-06-19T04:01:07;7;6;
43280;PMS5003;62175;49.416;8.690;2023-06-19T04:03:34;8;7;
43280;PMS5003;62175;49.416;8.690;2023-06-19T04:06:00;7;6;
43280;PMS5003;62175;49.416;8.690;2023-06-19T04:08:27;6;6;
43280;PMS5003;62175;49.416;8.690;2023-06-19T04:10:54;6;6;
43280;PMS5003;62175;49.416;8.690;2023-06-19T04:13:21;5;5;
43280;PMS5003;62175;49.416;8.690;2023-06-19T04:15:49;9;7;
43280;PMS5003;62175;49.416;8.690;2023-06-19T04:18:15;7;7;
43280;PMS5003;62175;49.416;8.690;2023-06-19T04:20:43;7;6;
43280;PMS5003;62175;49.416;8.690;2023-06-19T04:23:10;8;7;
43280;PMS5003;62175;49.416;8.690;2023-06-19T04:25:37;8;7;
43280;PMS5003;62175;49.416;8.690;2023-06-19T04:28:05;10;10;
43280;PMS5003;62175;49.416;8.690;2023-06-19T04:30:32;7;7;
43280;PMS5003;62175;49.416;8.690;2023-06-19T04:32:58;10;10;
43280;PMS5003;62175;49.416;8.690;2023-06-19T04:35:25;9;8;
43280;PMS5003;62175;49.416;8.690;2023-06-19T04:37:53;9;9;
43280;PMS5003;62175;49.416;8.690;2023-06-19T04:40:20;11;11;
43280;PMS5003;62175;49.416;8.690;2023-06-19T04:42:47;11;11;
43280;PMS5003;62175;49.416;8.690;2023-06-19T04:45:14;15;14;
43280;PMS5003;62175;49.416;8.690;2023-06-19T04:47:41;14;14;
43280;PMS5003;62175;49.416;8.690;2023-06-19T04:50:08;14;14;
43280;PMS5003;62175;49.416;8.690;2023-06-19T04:52:35;13;13;
43280;PMS5003;62175;49.416;8.690;2023-06-19T04:55:02;13;13;
43280;PMS5003;62175;49.416;8.690;2023-06-19T04:57:30;17;17;
43280;PMS5003;62175;49.416;8.690;2023-06-19T04:59:56;18;18;
43280;PMS5003;62175;49.416;8.690;2023-06-19T05:02:23;14;14;
43280;PMS5003;62175;49.416;8.690;2023-06-19T05:04:50;17;17;
43280;PMS5003;62175;49.416;8.690;2023-06-19T05:07:17;15;15;
43280;PMS5003;62175;49.416;8.690;2023-06-19T05:09:44;14;14;
43280;PMS5003;62175;49.416;8.690;2023-06-19T05:12:11;15;14;
43280;PMS5003;62175;49.416;8.690;2023-06-19T05:14:38;14;13;
43280;PMS5003;62175;49.416;8.690;2023-06-19T05:17:05;18;17;
43280;PMS5003;62175;49.416;8.690;2023-06-19T05:19:32;19;19;
43280;PMS5003;62175;49.416;8.690;2023-06-19T05:21:59;17;17;
43280;PMS5003;62175;49.416;8.690;2023-06-19T05:24:26;18;16;
43280;PMS5003;62175;49.416;8.690;2023-06-19T05:26:54;13;13;
43280;PMS5003;62175;49.416;8.690;2023-06-19T05:29:21;20;18;
43280;PMS5003;62175;49.416;8.690;2023-06-19T05:31:48;17;16;
43280;PMS5003;62175;49.416;8.690;2023-06-19T05:34:15;19;19;
43280;PMS5003;62175;49.416;8.690;2023-06-19T05:36:41;9;8;
43280;PMS5003;62175;49.416;8.690;2023-06-19T05:39:08;14;14;
43280;PMS5003;62175;49.416;8.690;2023-06-19T05:41:35;22;21;
43280;PMS5003;62175;49.416;8.690;2023-06-19T05:44:02;20;20;
43280;PMS5003;62175;49.416;8.690;2023-06-19T05:46:30;16;16;
43280;PMS5003;62175;49.416;8.690;2023-06-19T05:48:58;12;12;
43280;PMS5003;62175;49.416;8.690;2023-06-19T05:51:24;14;14;
43280;PMS5003;62175;49.416;8.690;2023-06-19T05:53:51;14;13;
43280;PMS5003;62175;49.416;8.690;2023-06-19T05:56:18;12;12;
43280;PMS5003;62175;49.416;8.690;2023-06-19T05:58:45;11;11;
43280;PMS5003;62175;49.416;8.690;2023-06-19T06:01:12;11;11;
43280;PMS5003;62175;49.416;8.690;2023-06-19T06:03:39;14;14;
43280;PMS5003;62175;49.416;8.690;2023-06-19T06:06:06;13;12;
43280;PMS5003;62175;49.416;8.690;2023-06-19T06:08:33;14;13;
43280;PMS5003;62175;49.416;8.690;2023-06-19T06:11:01;16;15;
43280;PMS5003;62175;49.416;8.690;2023-06-19T06:13:27;14;14;
43280;PMS5003;62175;49.416;8.690;2023-06-19T06:15:54;12;12;
43280;PMS5003;62175;49.416;8.690;2023-06-19T06:18:22;12;12;
43280;PMS5003;62175;49.416;8.690;2023-06-19T06:20:49;14;14;
43280;PMS5003;62175;49.416;8.690;2023-06-19T06:23:16;14;13;
43280;PMS5003;62175;49.416;8.690;2023-06-19T06:25:44;11;9;
43280;PMS5003;62175;49.416;8.690;2023-06-19T06:28:11;11;11;
43280;PMS5003;62175;49.416;8.690;2023-06-19T06:30:49;10;10;
43280;PMS5003;62175;49.416;8.690;2023-06-19T06:33:16;11;11;
43280;PMS5003;62175;49.416;8.690;2023-06-19T06:35:43;11;11;
43280;PMS5003;62175;49.416;8.690;2023-06-19T06:38:10;13;13;
43280;PMS5003;62175;49.416;8.690;2023-06-19T06:40:38;7;7;
43280;PMS5003;62175;49.416;8.690;2023-06-19T06:43:05;11;10;
43280;PMS5003;62175;49.416;8.690;2023-06-19T06:45:32;12;12;
43280;PMS5003;62175;49.416;8.690;2023-06-19T06:47:58;10;9;
43280;PMS5003;62175;49.416;8.690;2023-06-19T06:50:25;11;11;
43280;PMS5003;62175;49.416;8.690;2023-06-19T06:52:52;11;11;
43280;PMS5003;62175;49.416;8.690;2023-06-19T06:55:19;11;10;
43280;PMS5003;62175;49.416;8.690;2023-06-19T06:57:46;10;10;
43280;PMS5003;62175;49.416;8.690;2023-06-19T07:00:13;12;11;
43280;PMS5003;62175;49.416;8.690;2023-06-19T07:02:41;11;11;
43280;PMS5003;62175;49.416;8.690;2023-06-19T07:05:08;11;10;
43280;PMS5003;62175;49.416;8.690;2023-06-19T07:07:36;9;9;
43280;PMS5003;62175;49.416;8.690;2023-06-19T07:10:04;9;9;
43280;PMS5003;62175;49.416;8.690;2023-06-19T07:12:31;8;8;
43280;PMS5003;62175;49.416;8.690;2023-06-19T07:14:58;11;10;
43280;PMS5003;62175;49.416;8.690;2023-06-19T07:17:26;15;15;
43280;PMS5003;62175;49.416;8.690;2023-06-19T07:19:54;16;16;
43280;PMS5003;62175;49.416;8.690;2023-06-19T07:22:21;16;16;
43280;PMS5003;62175;49.416;8.690;2023-06-19T07:24:49;16;16;
43280;PMS5003;62175;49.416;8.690;2023-06-19T07:27:16;15;15;
43280;PMS5003;62175;49.416;8.690;2023-06-19T07:29:44;15;14;
43280;PMS5003;62175;49.416;8.690;2023-06-19T07:32:11;15;13;
43280;PMS5003;62175;49.416;8.690;2023-06-19T07:34:37;13;12;
43280;PMS5003;62175;49.416;8.690;2023-06-19T07:37:04;12;11;
43280;PMS5003;62175;49.416;8.690;2023-06-19T07:39:33;11;10;
43280;PMS5003;62175;49.416;8.690;2023-06-19T07:42:04;15;13;
43280;PMS5003;62175;49.416;8.690;2023-06-19T07:44:34;13;12;
43280;PMS5003;62175;49.416;8.690;2023-06-19T07:47:07;11;10;
43280;PMS5003;62175;49.416;8.690;2023-06-19T08:03:44;11;11;
43280;PMS5003;62175;49.416;8.690;2023-06-19T08:06:12;14;13;
43280;PMS5003;62175;49.416;8.690;2023-06-19T08:08:44;14;12;
43280;PMS5003;62175;49.416;8.690;2023-06-19T08:11:11;13;13;
43280;PMS5003;62175;49.416;8.690;2023-06-19T08:13:50;9;9;
43280;PMS5003;62175;49.416;8.690;2023-06-19T08:44:18;16;15;
43280;PMS5003;62175;49.416;8.690;2023-06-19T08:46:46;16;15;
43280;PMS5003;62175;49.416;8.690;2023-06-19T08:49:14;19;17;
43280;PMS5003;62175;49.416;8.690;2023-06-19T08:51:42;13;11;
43280;PMS5003;62175;49.416;8.690;2023-06-19T08:54:10;15;15;
43280;PMS5003;62175;49.416;8.690;2023-06-19T08:56:37;11;11;
43280;PMS5003;62175;49.416;8.690;2023-06-19T08:59:09;13;12;
43280;PMS5003;62175;49.416;8.690;2023-06-19T09:01:37;14;14;
43280;PMS5003;62175;49.416;8.690;2023-06-19T09:04:10;12;11;
43280;PMS5003;62175;49.416;8.690;2023-06-19T09:06:46;15;13;
43280;PMS5003;62175;49.416;8.690;2023-06-19T09:13:56;10;10;
43280;PMS5003;62175;49.416;8.690;2023-06-19T09:16:26;16;15;
43280;PMS5003;62175;49.416;8.690;2023-06-19T09:19:04;11;11;
43280;PMS5003;62175;49.416;8.690;2023-06-19T09:21:36;14;14;
43280;PMS5003;62175;49.416;8.690;2023-06-19T09:24:07;13;13;
43280;PMS5003;62175;49.416;8.690;2023-06-19T09:26:35;15;15;
43280;PMS5003;62175;49.416;8.690;2023-06-19T09:29:19;14;13;
43280;PMS5003;62175;49.416;8.690;2023-06-19T09:31:46;15;15;
43280;PMS5003;62175;49.416;8.690;2023-06-19T09:34:17;16;16;
43280;PMS5003;62175;49.416;8.690;2023-06-19T09:39:03;15;15;
43280;PMS5003;62175;49.416;8.690;2023-06-19T09:41:33;15;15;
43280;PMS5003;62175;49.416;8.690;2023-06-19T09:45:55;16;16;
43280;PMS5003;62175;49.416;8.690;2023-06-19T09:49:16;13;13;
43280;PMS5003;62175;49.416;8.690;2023-06-19T09:52:37;13;13;
43280;PMS5003;62175;49.416;8.690;2023-06-19T09:55:09;14;14;
43280;PMS5003;62175;49.416;8.690;2023-06-19T09:57:38;13;13;
43280;PMS5003;62175;49.416;8.690;2023-06-19T10:00:08;16;15;
43280;PMS5003;62175;49.416;8.690;2023-06-19T10:03:29;14;14;
43280;PMS5003;62175;49.416;8.690;2023-06-19T10:06:02;15;14;
43280;PMS5003;62175;49.416;8.690;2023-06-19T10:08:38;15;13;
43280;PMS5003;62175;49.416;8.690;2023-06-19T10:11:14;15;15;
43280;PMS5003;62175;49.416;8.690;2023-06-19T10:13:43;15;13;
43280;PMS5003;62175;49.416;8.690;2023-06-19T10:16:20;15;15;
43280;PMS5003;62175;49.416;8.690;2023-06-19T10:18:49;18;16;
43280;PMS5003;62175;49.416;8.690;2023-06-19T10:21:17;16;13;
43280;PMS5003;62175;49.416;8.690;2023-06-19T10:23:53;13;13;
43280;PMS5003;62175;49.416;8.690;2023-06-19T10:26:30;14;13;
43280;PMS5003;62175;49.416;8.690;2023-06-19T10:28:59;15;14;
43280;PMS5003;62175;49.416;8.690;2023-06-19T10:31:27;11;10;
43280;PMS5003;62175;49.416;8.690;2023-06-19T10:33:56;14;13;
43280;PMS5003;62175;49.416;8.690;2023-06-19T10:36:30;15;14;
43280;PMS5003;62175;49.416;8.690;2023-06-19T10:39:01;16;15;
43280;PMS5003;62175;49.416;8.690;2023-06-19T10:41:28;16;14;
43280;PMS5003;62175;49.416;8.690;2023-06-19T10:50:46;16;15;
43280;PMS5003;62175;49.416;8.690;2023-06-19T11:00:49;12;12;
43280;PMS5003;62175;49.416;8.690;2023-06-19T11:03:17;15;13;
43280;PMS5003;62175;49.416;8.690;2023-06-19T11:05:50;14;14;
43280;PMS5003;62175;49.416;8.690;2023-06-19T11:08:18;14;13;
43280;PMS5003;62175;49.416;8.690;2023-06-19T11:10:48;12;11;
43280;PMS5003;62175;49.416;8.690;2023-06-19T11:13:18;13;12;
43280;PMS5003;62175;49.416;8.690;2023-06-19T11:15:48;15;13;
43280;PMS5003;62175;49.416;8.690;2023-06-19T11:18:17;12;11;
43280;PMS5003;62175;49.416;8.690;2023-06-19T11:20:47;9;9;
43280;PMS5003;62175;49.416;8.690;2023-06-19T11:23:16;12;12;
43280;PMS5003;62175;49.416;8.690;2023-06-19T11:25:51;12;12;
43280;PMS5003;62175;49.416;8.690;2023-06-19T11:28:19;14;14;
43280;PMS5003;62175;49.416;8.690;2023-06-19T11:30:46;14;13;
43280;PMS5003;62175;49.416;8.690;2023-06-19T11:33:17;11;11;
43280;PMS5003;62175;49.416;8.690;2023-06-19T11:35:47;14;13;
43280;PMS5003;62175;49.416;8.690;2023-06-19T11:38:16;13;13;
43280;PMS5003;62175;49.416;8.690;2023-06-19T11:40:44;13;13;
43280;PMS5003;62175;49.416;8.690;2023-06-19T11:43:12;11;11;
43280;PMS5003;62175;49.416;8.690;2023-06-19T11:45:51;10;10;
43280;PMS5003;62175;49.416;8.690;2023-06-19T11:48:22;12;12;
43280;PMS5003;62175;49.416;8.690;2023-06-19T11:50:51;12;12;
43280;PMS5003;62175;49.416;8.690;2023-06-19T11:53:19;13;13;
43280;PMS5003;62175;49.416;8.690;2023-06-19T11:55:47;10;10;
43280;PMS5003;62175;49.416;8.690;2023-06-19T11:58:18;12;12;
43280;PMS5003;62175;49.416;8.690;2023-06-19T12:00:46;12;12;
43280;PMS5003;62175;49.416;8.690;2023-06-19T12:03:14;10;10;
43280;PMS5003;62175;49.416;8.690;2023-06-19T12:05:42;12;12;
43280;PMS5003;62175;49.416;8.690;2023-06-19T12:08:09;11;9;
43280;PMS5003;62175;49.416;8.690;2023-06-19T12:10:38;11;10;
43280;PMS5003;62175;49.416;8.690;2023-06-19T12:13:07;10;9;
43280;PMS5003;62175;49.416;8.690;2023-06-19T12:15:34;11;9;
43280;PMS5003;62175;49.416;8.690;2023-06-19T12:18:04;13;12;
43280;PMS5003;62175;49.416;8.690;2023-06-19T12:20:33;8;8;
43280;PMS5003;62175;49.416;8.690;2023-06-19T12:23:00;10;10;
43280;PMS5003;62175;49.416;8.690;2023-06-19T12:25:27;12;11;
43280;PMS5003;62175;49.416;8.690;2023-06-19T12:27:58;12;12;
43280;PMS5003;62175;49.416;8.690;2023-06-19T12:30:26;12;12;
43280;PMS5003;62175;49.416;8.690;2023-06-19T12:33:02;12;12;
43280;PMS5003;62175;49.416;8.690;2023-06-19T12:35:30;10;10;
43280;PMS5003;62175;49.416;8.690;2023-06-19T12:37:58;10;9;
43280;PMS5003;62175;49.416;8.690;2023-06-19T12:40:26;10;10;
43280;PMS5003;62175;49.416;8.690;2023-06-19T12:43:04;11;9;
43280;PMS5003;62175;49.416;8.690;2023-06-19T12:45:37;9;9;
43280;PMS5003;62175;49.416;8.690;2023-06-19T12:48:05;11;11;
43280;PMS5003;62175;49.416;8.690;2023-06-19T12:50:33;11;11;
43280;PMS5003;62175;49.416;8.690;2023-06-19T12:53:01;10;10;
43280;PMS5003;62175;49.416;8.690;2023-06-19T12:55:28;9;9;
43280;PMS5003;62175;49.416;8.690;2023-06-19T12:57:56;10;10;
43280;PMS5003;62175;49.416;8.690;2023-06-19T13:00:25;10;10;
43280;PMS5003;62175;49.416;8.690;2023-06-19T13:02:53;11;11;
43280;PMS5003;62175;49.416;8.690;2023-06-19T13:05:22;11;11;
43280;PMS5003;62175;49.416;8.690;2023-06-19T13:07:49;14;14;
43280;PMS5003;62175;49.416;8.690;2023-06-19T13:10:17;12;10;
43280;PMS5003;62175;49.416;8.690;2023-06-19T13:12:44;11;10;
43280;PMS5003;62175;49.416;8.690;2023-06-19T13:15:12;10;10;
43280;PMS5003;62175;49.416;8.690;2023-06-19T13:17:41;12;12;
43280;PMS5003;62175;49.416;8.690;2023-06-19T13:20:08;9;9;
43280;PMS5003;62175;49.416;8.690;2023-06-19T13:22:36;10;10;
43280;PMS5003;62175;49.416;8.690;2023-06-19T13:25:04;12;12;
43280;PMS5003;62175;49.416;8.690;2023-06-19T13:27:32;10;10;
43280;PMS5003;62175;49.416;8.690;2023-06-19T13:30:00;8;8;
43280;PMS5003;62175;49.416;8.690;2023-06-19T13:32:28;8;8;
43280;PMS5003;62175;49.416;8.690;2023-06-19T13:34:55;10;8;
43280;PMS5003;62175;49.416;8.690;2023-06-19T13:37:25;10;9;
43280;PMS5003;62175;49.416;8.690;2023-06-19T13:39:57;9;8;
43280;PMS5003;62175;49.416;8.690;2023-06-19T13:42:25;11;10;
43280;PMS5003;62175;49.416;8.690;2023-06-19T13:44:53;11;10;
43280;PMS5003;62175;49.416;8.690;2023-06-19T13:47:21;12;11;
43280;PMS5003;62175;49.416;8.690;2023-06-19T13:49:49;12;12;
43280;PMS5003;62175;49.416;8.690;2023-06-19T13:52:16;12;11;
43280;PMS5003;62175;49.416;8.690;2023-06-19T13:54:49;16;15;
43280;PMS5003;62175;49.416;8.690;2023-06-19T13:57:17;12;11;
43280;PMS5003;62175;49.416;8.690;2023-06-19T13:59:43;9;8;
43280;PMS5003;62175;49.416;8.690;2023-06-19T14:02:10;12;12;
43280;PMS5003;62175;49.416;8.690;2023-06-19T14:04:39;13;12;
43280;PMS5003;62175;49.416;8.690;2023-06-19T14:07:06;14;14;
43280;PMS5003;62175;49.416;8.690;2023-06-19T14:09:38;11;11;
43280;PMS5003;62175;49.416;8.690;2023-06-19T14:12:06;11;9;
43280;PMS5003;62175;49.416;8.690;2023-06-19T14:14:34;13;11;
43280;PMS5003;62175;49.416;8.690;2023-06-19T14:17:01;12;11;
43280;PMS5003;62175;49.416;8.690;2023-06-19T14:19:29;12;10;
43280;PMS5003;62175;49.416;8.690;2023-06-19T14:21:56;13;12;
43280;PMS5003;62175;49.416;8.690;2023-06-19T14:24:23;11;11;
43280;PMS5003;62175;49.416;8.690;2023-06-19T14:26:53;13;12;
43280;PMS5003;62175;49.416;8.690;2023-06-19T14:29:20;11;10;
43280;PMS5003;62175;49.416;8.690;2023-06-19T14:32:53;12;11;
43280;PMS5003;62175;49.416;8.690;2023-06-19T14:53:30;12;12;
43280;PMS5003;62175;49.416;8.690;2023-06-19T14:59:10;11;11;
43280;PMS5003;62175;49.416;8.690;2023-06-19T15:04:24;16;14;
43280;PMS5003;62175;49.416;8.690;2023-06-19T15:06:52;12;11;
43280;PMS5003;62175;49.416;8.690;2023-06-19T15:09:19;9;9;
43280;PMS5003;62175;49.416;8.690;2023-06-19T15:11:47;10;10;
43280;PMS5003;62175;49.416;8.690;2023-06-19T15:14:14;9;8;
43280;PMS5003;62175;49.416;8.690;2023-06-19T15:16:41;12;11;
43280;PMS5003;62175;49.416;8.690;2023-06-19T15:19:08;8;8;
43280;PMS5003;62175;49.416;8.690;2023-06-19T15:21:35;13;12;
43280;PMS5003;62175;49.416;8.690;2023-06-19T15:24:02;12;12;
43280;PMS5003;62175;49.416;8.690;2023-06-19T15:26:33;12;12;
43280;PMS5003;62175;49.416;8.690;2023-06-19T15:29:01;13;12;
43280;PMS5003;62175;49.416;8.690;2023-06-19T15:31:29;12;12;
43280;PMS5003;62175;49.416;8.690;2023-06-19T15:33:56;13;13;
43280;PMS5003;62175;49.416;8.690;2023-06-19T15:36:23;10;9;
43280;PMS5003;62175;49.416;8.690;2023-06-19T15:38:50;11;11;
43280;PMS5003;62175;49.416;8.690;2023-06-19T15:41:18;11;11;
43280;PMS5003;62175;49.416;8.690;2023-06-19T15:43:45;12;11;
43280;PMS5003;62175;49.416;8.690;2023-06-19T15:46:13;12;12;
43280;PMS5003;62175;49.416;8.690;2023-06-19T15:48:40;13;12;
43280;PMS5003;62175;49.416;8.690;2023-06-19T15:51:08;11;11;
43280;PMS5003;62175;49.416;8.690;2023-06-19T15:53:36;12;12;
43280;PMS5003;62175;49.416;8.690;2023-06-19T15:56:04;11;11;
43280;PMS5003;62175;49.416;8.690;2023-06-19T15:58:31;9;9;
43280;PMS5003;62175;49.416;8.690;2023-06-19T16:00:58;11;10;
43280;PMS5003;62175;49.416;8.690;2023-06-19T16:03:25;12;12;
43280;PMS5003;62175;49.416;8.690;2023-06-19T16:05:53;12;11;
43280;PMS5003;62175;49.416;8.690;2023-06-19T16:08:21;10;10;
43280;PMS5003;62175;49.416;8.690;2023-06-19T16:10:48;11;11;
43280;PMS5003;62175;49.416;8.690;2023-06-19T16:13:15;10;10;
43280;PMS5003;62175;49.416;8.690;2023-06-19T16:15:42;13;12;
43280;PMS5003;62175;49.416;8.690;2023-06-19T16:18:51;10;10;
43280;PMS5003;62175;49.416;8.690;2023-06-19T16:21:18;8;8;
43280;PMS5003;62175;49.416;8.690;2023-06-19T16:23:45;9;9;
43280;PMS5003;62175;49.416;8.690;2023-06-19T16:26:12;11;11;
43280;PMS5003;62175;49.416;8.690;2023-06-19T16:28:39;7;7;
43280;PMS5003;62175;49.416;8.690;2023-06-19T16:31:07;10;9;
43280;PMS5003;62175;49.416;8.690;2023-06-19T16:33:35;13;11;
43280;PMS5003;62175;49.416;8.690;2023-06-19T16:36:03;11;10;
43280;PMS5003;62175;49.416;8.690;2023-06-19T16:38:31;9;8;
43280;PMS5003;62175;49.416;8.690;2023-06-19T16:40:58;11;10;
43280;PMS5003;62175;49.416;8.690;2023-06-19T16:43:25;8;8;
43280;PMS5003;62175;49.416;8.690;2023-06-19T16:47:17;9;9;
43280;PMS5003;62175;49.416;8.690;2023-06-19T16:49:45;10;10;
43280;PMS5003;62175;49.416;8.690;2023-06-19T16:52:13;10;10;
43280;PMS5003;62175;49.416;8.690;2023-06-19T16:54:41;8;8;
43280;PMS5003;62175;49.416;8.690;2023-06-19T16:57:08;8;8;
43280;PMS5003;62175;49.416;8.690;2023-06-19T16:59:36;9;9;
43280;PMS5003;62175;49.416;8.690;2023-06-19T17:02:04;10;10;
43280;PMS5003;62175;49.416;8.690;2023-06-19T17:04:32;8;8;
43280;PMS5003;62175;49.416;8.690;2023-06-19T17:06:59;10;10;
43280;PMS5003;62175;49.416;8.690;2023-06-19T17:09:26;10;9;
43280;PMS5003;62175;49.416;8.690;2023-06-19T17:11:53;11;11;
43280;PMS5003;62175;49.416;8.690;2023-06-19T17:14:20;12;11;
43280;PMS5003;62175;49.416;8.690;2023-06-19T17:16:48;9;8;
43280;PMS5003;62175;49.416;8.690;2023-06-19T17:19:17;12;12;
43280;PMS5003;62175;49.416;8.690;2023-06-19T17:21:44;12;10;
43280;PMS5003;62175;49.416;8.690;2023-06-19T17:24:11;10;9;
43280;PMS5003;62175;49.416;8.690;2023-06-19T17:26:39;10;10;
43280;PMS5003;62175;49.416;8.690;2023-06-19T17:29:06;13;13;
43280;PMS5003;62175;49.416;8.690;2023-06-19T17:31:34;11;11;
43280;PMS5003;62175;49.416;8.690;2023-06-19T17:34:02;10;10;
43280;PMS5003;62175;49.416;8.690;2023-06-19T17:36:29;9;9;
43280;PMS5003;62175;49.416;8.690;2023-06-19T17:38:57;13;12;
43280;PMS5003;62175;49.416;8.690;2023-06-19T17:41:24;12;11;
43280;PMS5003;62175;49.416;8.690;2023-06-19T17:43:52;9;9;
43280;PMS5003;62175;49.416;8.690;2023-06-19T17:46:20;9;8;
43280;PMS5003;62175;49.416;8.690;2023-06-19T17:48:47;11;10;
43280;PMS5003;62175;49.416;8.690;2023-06-19T17:51:14;11;10;
43280;PMS5003;62175;49.416;8.690;2023-06-19T17:53:41;12;11;
43280;PMS5003;62175;49.416;8.690;2023-06-19T17:56:09;12;12;
43280;PMS5003;62175;49.416;8.690;2023-06-19T17:58:36;11;11;
43280;PMS5003;62175;49.416;8.690;2023-06-19T18:01:04;11;10;
43280;PMS5003;62175;49.416;8.690;2023-06-19T18:03:31;10;9;
43280;PMS5003;62175;49.416;8.690;2023-06-19T18:05:57;11;10;